Terminal Aerodrome Forecast
Issued by NWS Greer, SC

Home | Current Version | Previous Version | Text Only | Print | Product List | Glossary On
Versions: 1 2 3 4 5 6 7 8 9 10 11 12 13 14
000
FTUS42 KGSP 010540
TAFAVL
TAF
KAVL 010540Z 0106/0206 17003KT P6SM FEW060 SCT120 SCT250
      TEMPO 0110/0112 4SM BR BKN004
     FM011700 33006KT P6SM VCTS BKN040CB PROB30 0117/0121 4SM -TSRA
      OVC025CB
     FM012100 31005KT P6SM -SHRA BKN045 PROB30 0121/0124 4SM TSRA
      OVC025CB
     FM020000 35005KT P6SM BKN080 PROB30 0200/0206 4SM -SHRA OVC025=

USA.gov is the U.S. government's official web portal to all federal, state and local government web resources and services.